Sultan Ismail Petra Airport Kota Baharu MY
ICAO: WMKC
IATA:
Category: Medium
Scheduled Services:

Elevation: 16 ft
TransAlt. 11000 ft.

Airport Communications:
KOTA BHARU GND:121.6
KOTA BHARU TWR:122.5

WMKC Zoom In..

If you have problems with the map follow the link
https://www.worldairports.se/pages/airport.php?
ICAO=WMKC

Runways:

(A) RW 10 length 7874 ft width 148 ft
ILS 109.30 / hdg 100

(B) RW 28 length 7874 ft width 148 ft
---- / hdg 280

Location; WMKC
Day. 14 / Time. 09.00 Zulu
* QNH: 1008
* Temperature: 30° c. 86°f.
* Wind from: 070° Speed 06 kn.
Dewpoint: 24° c.
Visibility: 10 km or more.
Clouds: Few 1700 ft.
Clouds: Scattered 14000 ft.
Clouds: Broken 22000 ft.

WMKC 140900Z 07006KT 050V110 9999 FEW017CB SCT140 BKN220 30/24 Q1008


Wind From 070°
Speed 06 kn.

 
 
jpsmedia worldairports.se 2019   terms of use